createdAt,value
2022-09-09T00:00:25.236Z,100358.63
2022-09-09T00:03:03.438Z,100348.97
2022-09-09T00:05:48.122Z,100356.81
2022-09-09T00:08:19.993Z,100354.19
2022-09-09T00:10:52.676Z,100361.16
2022-09-09T00:13:28.781Z,100362.03
2022-09-09T00:16:17.361Z,100362.00
2022-09-09T00:19:14.742Z,100371.56
2022-09-09T00:22:09.032Z,100368.06
2022-09-09T00:24:48.043Z,100365.41
2022-09-09T00:27:25.075Z,100361.06
2022-09-09T00:30:03.814Z,100371.50
2022-09-09T00:32:31.534Z,100364.53
2022-09-09T00:35:04.872Z,100363.66
2022-09-09T00:37:32.850Z,100368.00
2022-09-09T00:40:01.822Z,100361.00
2022-09-09T00:42:42.936Z,100354.88
2022-09-09T00:45:30.903Z,100354.84
2022-09-09T00:47:57.918Z,100358.31
2022-09-09T00:50:36.653Z,100354.81
2022-09-09T00:53:25.788Z,100353.91
2022-09-09T00:56:15.461Z,100356.50
2022-09-09T00:58:44.447Z,100356.50
2022-09-09T01:01:12.975Z,100356.50
2022-09-09T01:03:56.894Z,100341.66
2022-09-09T01:06:37.730Z,100341.66
2022-09-09T01:09:04.278Z,100351.28
2022-09-09T01:11:51.142Z,100353.88
2022-09-09T01:14:31.640Z,100353.00
2022-09-09T01:17:15.881Z,100350.41
2022-09-09T01:19:42.222Z,100340.81
2022-09-09T01:22:27.280Z,100353.03
2022-09-09T01:25:20.193Z,100349.53
2022-09-09T01:27:49.473Z,100353.00
2022-09-09T01:30:17.467Z,100351.28
2022-09-09T01:32:49.417Z,100346.91
2022-09-09T01:35:31.172Z,100352.94
2022-09-09T01:37:57.723Z,100352.94
2022-09-09T01:40:25.122Z,100350.31
2022-09-09T01:42:52.265Z,100350.31
2022-09-09T01:45:18.744Z,100345.06
2022-09-09T01:47:46.350Z,100350.31
2022-09-09T01:50:16.880Z,100353.78
2022-09-09T01:52:45.176Z,100355.50
2022-09-09T01:55:11.819Z,100356.38
2022-09-09T01:58:32.375Z,100351.13
2022-09-09T02:01:14.550Z,100352.84
2022-09-09T02:03:44.619Z,100350.22
2022-09-09T02:06:39.520Z,100345.84
2022-09-09T02:09:07.634Z,100352.81
2022-09-09T02:11:34.856Z,100361.53
2022-09-09T02:14:05.612Z,100360.66
2022-09-09T02:16:44.375Z,100358.03
2022-09-09T02:19:15.316Z,100362.38
2022-09-09T02:21:43.405Z,100349.28
2022-09-09T02:24:11.335Z,100351.91
2022-09-09T02:26:41.282Z,100352.78
2022-09-09T02:29:15.294Z,100352.78
2022-09-09T02:31:42.886Z,100355.38
2022-09-09T02:34:11.705Z,100355.38
2022-09-09T02:36:40.443Z,100356.25
2022-09-09T02:39:09.135Z,100351.88
2022-09-09T02:41:38.555Z,100351.03
2022-09-09T02:44:13.115Z,100352.75
2022-09-09T02:46:48.834Z,100350.13
2022-09-09T02:49:44.413Z,100351.88
2022-09-09T02:52:21.874Z,100348.38
2022-09-09T02:54:51.147Z,100343.09
2022-09-09T02:57:23.994Z,100345.72
2022-09-09T02:59:51.122Z,100337.00
2022-09-09T03:02:17.690Z,100341.34
2022-09-09T03:04:45.470Z,100338.72
2022-09-09T03:07:13.056Z,100336.97
2022-09-09T03:09:39.487Z,100339.59
2022-09-09T03:12:06.016Z,100342.19
2022-09-09T03:14:32.435Z,100350.00
2022-09-09T03:17:01.723Z,100347.38
2022-09-09T03:19:28.816Z,100349.13
2022-09-09T03:21:55.363Z,100358.69
2022-09-09T03:24:22.347Z,100361.31
2022-09-09T03:26:48.831Z,100356.91
2022-09-09T03:29:15.747Z,100360.38
2022-09-09T03:31:43.919Z,100363.00
2022-09-09T03:34:10.583Z,100363.84
2022-09-09T03:36:37.509Z,100368.22
2022-09-09T03:39:04.163Z,100357.75
2022-09-09T03:41:31.155Z,100352.53
2022-09-09T03:43:57.653Z,100352.53
2022-09-09T03:46:25.580Z,100356.00
2022-09-09T03:48:53.305Z,100356.00
2022-09-09T03:51:20.139Z,100349.03
2022-09-09T03:53:46.519Z,100354.25
2022-09-09T03:56:12.985Z,100354.25
2022-09-09T03:58:39.455Z,100356.00
2022-09-09T04:01:11.710Z,100346.41
2022-09-09T04:03:38.155Z,100355.13
2022-09-09T04:06:05.838Z,100364.72
2022-09-09T04:08:32.675Z,100363.84
2022-09-09T04:10:59.464Z,100361.22
2022-09-09T04:13:27.288Z,100357.72
2022-09-09T04:15:55.350Z,100356.81
2022-09-09T04:18:22.101Z,100360.28
2022-09-09T04:20:49.694Z,100363.78
2022-09-09T04:23:16.900Z,100356.78
2022-09-09T04:25:47.819Z,100345.41
2022-09-09T04:28:15.246Z,100351.53
2022-09-09T04:30:42.431Z,100351.53
2022-09-09T04:33:09.230Z,100355.00
2022-09-09T04:35:35.929Z,100349.78
2022-09-09T04:38:03.616Z,100351.50
2022-09-09T04:40:31.046Z,100363.72
2022-09-09T04:43:06.862Z,100369.78
2022-09-09T04:45:34.535Z,100370.66
2022-09-09T04:48:01.159Z,100359.34
2022-09-09T04:50:27.602Z,100359.34
2022-09-09T04:52:53.985Z,100365.44
2022-09-09T04:55:21.028Z,100360.22
2022-09-09T04:57:47.520Z,100362.84
2022-09-09T05:00:14.549Z,100371.56
2022-09-09T05:02:41.131Z,100365.47
2022-09-09T05:05:07.804Z,100371.59
2022-09-09T05:07:34.186Z,100375.13
2022-09-09T05:10:00.604Z,100376.00
2022-09-09T05:12:27.074Z,100377.78
2022-09-09T05:14:53.610Z,100371.69
2022-09-09T05:17:20.161Z,100383.91
2022-09-09T05:19:46.553Z,100382.22
2022-09-09T05:22:12.934Z,100386.59
2022-09-09T05:24:39.626Z,100379.66
2022-09-09T05:27:07.023Z,100384.94
2022-09-09T05:29:34.503Z,100383.28
2022-09-09T05:32:01.114Z,100381.56
2022-09-09T05:34:27.997Z,100386.00
2022-09-09T05:36:54.666Z,100385.16
2022-09-09T05:39:21.074Z,100383.44
2022-09-09T05:41:47.647Z,100377.34
2022-09-09T05:44:14.413Z,100385.25
2022-09-09T05:46:40.869Z,100383.53
2022-09-09T05:49:07.345Z,100396.66
2022-09-09T05:51:33.750Z,100390.66
2022-09-09T05:54:00.167Z,100394.19
2022-09-09T05:56:28.962Z,100392.47
2022-09-09T05:58:56.370Z,100394.22
2022-09-09T06:01:25.407Z,100395.16
2022-09-09T06:03:52.946Z,100399.53
2022-09-09T06:06:24.847Z,100400.44
2022-09-09T06:08:53.785Z,100396.13
2022-09-09T06:11:22.719Z,100399.63
2022-09-09T06:13:51.911Z,100395.28
2022-09-09T06:16:19.686Z,100388.34
2022-09-09T06:18:46.139Z,100390.16
2022-09-09T06:21:16.738Z,100387.53
2022-09-09T06:23:43.342Z,100391.91
2022-09-09T06:26:15.519Z,100400.66
2022-09-09T06:28:43.719Z,100394.59
2022-09-09T06:31:12.367Z,100392.88
2022-09-09T06:33:41.965Z,100393.75
2022-09-09T06:36:13.560Z,100396.38
2022-09-09T06:38:40.013Z,100399.00
2022-09-09T06:41:06.787Z,100393.81
2022-09-09T06:43:33.398Z,100399.09
2022-09-09T06:46:01.447Z,100394.78
2022-09-09T06:48:29.035Z,100401.78
2022-09-09T06:51:03.641Z,100394.00
2022-09-09T06:53:30.859Z,100398.41
2022-09-09T06:55:57.393Z,100401.03
2022-09-09T06:58:23.803Z,100403.66
2022-09-09T07:00:50.709Z,100399.31
2022-09-09T07:03:17.144Z,100401.06
2022-09-09T07:05:45.236Z,100394.09
2022-09-09T07:08:11.778Z,100399.38
2022-09-09T07:10:38.197Z,100395.03
2022-09-09T07:13:05.612Z,100397.66
2022-09-09T07:15:34.684Z,100396.78
2022-09-09T07:18:04.245Z,100392.41
2022-09-09T07:20:30.666Z,100393.28
2022-09-09T07:22:57.665Z,100395.06
2022-09-09T07:25:24.129Z,100402.06
2022-09-09T07:27:50.539Z,100401.25
2022-09-09T07:30:22.000Z,100407.34
2022-09-09T07:32:52.991Z,100403.88
2022-09-09T07:35:19.401Z,100405.63
2022-09-09T07:37:50.306Z,100404.78
2022-09-09T07:40:17.545Z,100401.28
2022-09-09T07:42:43.988Z,100401.28
2022-09-09T07:45:10.376Z,100398.69
2022-09-09T07:47:36.768Z,100402.19
2022-09-09T07:50:03.188Z,100408.34
2022-09-09T07:52:29.574Z,100411.84
2022-09-09T07:54:57.398Z,100417.97
2022-09-09T07:57:24.029Z,100410.09
2022-09-09T07:59:51.571Z,100415.38
2022-09-09T08:02:17.954Z,100417.13
2022-09-09T08:04:44.361Z,100415.41
2022-09-09T08:07:11.572Z,100416.25
2022-09-09T08:09:37.973Z,100418.88
2022-09-09T08:12:04.554Z,100425.03
2022-09-09T08:14:30.963Z,100416.25
2022-09-09T08:16:58.131Z,100425.91
2022-09-09T08:19:24.543Z,100423.25
2022-09-09T08:21:50.942Z,100422.38
2022-09-09T08:24:17.711Z,100419.72
2022-09-09T08:26:45.850Z,100423.25
2022-09-09T08:29:14.070Z,100423.22
2022-09-09T08:31:43.965Z,100415.31
2022-09-09T08:34:10.574Z,100419.66
2022-09-09T08:36:39.260Z,100412.59
2022-09-09T08:39:06.812Z,100408.16
2022-09-09T08:41:51.912Z,100417.78
2022-09-09T08:44:39.538Z,100416.00
2022-09-09T08:47:12.066Z,100416.84
2022-09-09T08:50:06.582Z,100409.81
2022-09-09T08:52:54.322Z,100421.13
2022-09-09T08:55:43.028Z,100422.91
2022-09-09T08:58:15.887Z,100422.81
2022-09-09T09:01:10.216Z,100428.88
2022-09-09T09:03:40.116Z,100429.66
2022-09-09T09:06:40.386Z,100429.56
2022-09-09T09:09:22.418Z,100434.81
2022-09-09T09:11:54.854Z,100438.31
2022-09-09T09:14:24.867Z,100437.41
2022-09-09T09:17:22.426Z,100438.28
2022-09-09T09:19:50.548Z,100432.94
2022-09-09T09:22:23.184Z,100434.69
2022-09-09T09:24:57.987Z,100428.53
2022-09-09T09:27:35.021Z,100432.03
2022-09-09T09:30:29.865Z,100428.56
2022-09-09T09:33:00.793Z,100438.19
2022-09-09T09:35:27.207Z,100434.69
2022-09-09T09:40:51.055Z,100436.38
2022-09-09T09:43:21.633Z,100429.38
2022-09-09T09:46:06.956Z,100432.88
2022-09-09T09:48:35.624Z,100439.00
2022-09-09T09:51:08.178Z,100434.59
2022-09-09T09:53:35.686Z,100436.31
2022-09-09T09:56:04.243Z,100430.13
2022-09-09T09:58:34.764Z,100427.44
2022-09-09T10:01:01.915Z,100424.78
2022-09-09T10:03:31.510Z,100425.63
2022-09-09T10:05:58.578Z,100425.53
2022-09-09T10:08:28.835Z,100410.66
2022-09-09T10:11:07.857Z,100417.72
2022-09-09T10:13:40.102Z,100427.41
2022-09-09T10:16:22.946Z,100430.94
2022-09-09T10:19:02.272Z,100429.22
2022-09-09T10:21:47.921Z,100438.00
2022-09-09T10:24:35.067Z,100435.34
2022-09-09T10:27:14.501Z,100430.81
2022-09-09T10:29:48.543Z,100441.34
2022-09-09T10:32:56.603Z,100434.28
2022-09-09T10:36:03.055Z,100433.38
2022-09-09T10:38:44.316Z,100425.38
2022-09-09T10:41:21.290Z,100440.22
2022-09-09T10:44:12.634Z,100432.25
2022-09-09T10:47:01.759Z,100421.59
2022-09-09T10:49:50.624Z,100433.00
2022-09-09T10:52:33.903Z,100426.72
2022-09-09T10:55:08.085Z,100425.78
2022-09-09T10:57:38.599Z,100422.28
2022-09-09T11:00:07.732Z,100419.56
2022-09-09T11:02:35.266Z,100411.59
2022-09-09T11:05:09.586Z,100410.63
2022-09-09T11:07:42.265Z,100414.00
2022-09-09T11:10:19.136Z,100413.09
2022-09-09T11:12:46.778Z,100415.69
2022-09-09T11:15:27.094Z,100401.53
2022-09-09T11:18:02.482Z,100408.50
2022-09-09T11:20:29.323Z,100411.13
2022-09-09T11:23:01.347Z,100413.66
2022-09-09T11:25:34.519Z,100410.06
2022-09-09T11:28:28.845Z,100410.13
2022-09-09T11:31:29.602Z,100417.00
2022-09-09T11:34:09.505Z,100418.50
2022-09-09T11:37:14.563Z,100421.84
2022-09-09T11:40:08.719Z,100411.13
2022-09-09T11:42:35.257Z,100410.09
2022-09-09T11:45:31.174Z,100410.84
2022-09-09T11:47:59.428Z,100399.25
2022-09-09T11:50:25.712Z,100395.53
2022-09-09T11:52:54.718Z,100405.16
2022-09-09T11:55:29.789Z,100401.53
2022-09-09T11:58:00.420Z,100395.28
2022-09-09T12:00:41.133Z,100395.16
2022-09-09T12:03:34.888Z,100385.28
2022-09-09T12:06:10.545Z,100394.03
2022-09-09T12:08:38.077Z,100399.16
2022-09-09T12:11:05.518Z,100396.28
2022-09-09T12:13:32.698Z,100389.91
2022-09-09T12:16:00.477Z,100389.06
2022-09-09T12:18:37.657Z,100384.38
2022-09-09T12:21:27.784Z,100388.69
2022-09-09T12:24:01.679Z,100395.53
2022-09-09T12:26:33.866Z,100387.03
2022-09-09T12:29:08.345Z,100392.41
2022-09-09T12:32:07.136Z,100389.69
2022-09-09T12:34:40.776Z,100387.03
2022-09-09T12:37:20.216Z,100379.00
2022-09-09T12:39:52.163Z,100374.44
2022-09-09T12:42:22.878Z,100375.25
2022-09-09T12:44:59.823Z,100369.16
2022-09-09T12:47:46.872Z,100371.81
2022-09-09T12:50:20.638Z,100373.72
2022-09-09T12:52:48.306Z,100362.28
2022-09-09T12:55:22.375Z,100379.31
2022-09-09T12:57:51.181Z,100362.53
2022-09-09T13:00:21.395Z,100363.44
2022-09-09T13:02:52.871Z,100364.25
2022-09-09T13:05:25.092Z,100366.13
2022-09-09T13:07:51.781Z,100366.22
2022-09-09T13:10:36.232Z,100371.44
2022-09-09T13:13:04.036Z,100366.25
2022-09-09T13:15:30.767Z,100360.25
2022-09-09T13:18:01.627Z,100351.38
2022-09-09T13:20:28.806Z,100341.69
2022-09-09T13:22:56.011Z,100355.03
2022-09-09T13:25:28.797Z,100351.47
2022-09-09T13:28:01.746Z,100373.69
2022-09-09T13:30:41.981Z,100389.78
2022-09-09T13:33:15.389Z,100384.06
2022-09-09T13:35:48.744Z,100384.25
2022-09-09T13:38:16.546Z,100380.88
2022-09-09T13:40:58.617Z,100379.22
2022-09-09T13:43:26.421Z,100374.13
2022-09-09T13:45:58.915Z,100379.50
2022-09-09T13:48:26.641Z,100368.78
2022-09-09T13:51:01.906Z,100375.72
2022-09-09T13:53:28.518Z,100373.69
2022-09-09T13:55:54.980Z,100364.66
2022-09-09T13:58:22.492Z,100363.69
2022-09-09T14:00:49.084Z,100359.16
2022-09-09T14:03:15.522Z,100365.25
2022-09-09T14:05:43.133Z,100351.03
2022-09-09T14:08:17.560Z,100344.69
2022-09-09T14:10:43.993Z,100342.78
2022-09-09T14:13:10.391Z,100339.16
2022-09-09T14:15:36.923Z,100318.94
2022-09-09T14:18:03.410Z,100327.69
2022-09-09T14:20:29.804Z,100331.19
2022-09-09T14:23:03.378Z,100328.47
2022-09-09T14:25:30.091Z,100328.38
2022-09-09T14:27:57.155Z,100327.41
2022-09-09T14:30:23.594Z,100335.22
2022-09-09T14:32:49.977Z,100335.16
2022-09-09T14:35:18.246Z,100336.81
2022-09-09T14:37:45.573Z,100341.13
2022-09-09T14:40:12.310Z,100341.91
2022-09-09T14:42:38.780Z,100346.25
2022-09-09T14:45:05.719Z,100337.31
2022-09-09T14:47:32.297Z,100339.13
2022-09-09T14:49:58.727Z,100344.38
2022-09-09T14:52:26.301Z,100336.66
2022-09-09T14:54:52.713Z,100331.66
2022-09-09T14:57:19.266Z,100342.19
2022-09-09T14:59:45.817Z,100344.75
2022-09-09T15:02:14.914Z,100347.41
2022-09-09T15:04:41.377Z,100334.44
2022-09-09T15:07:07.801Z,100337.81
2022-09-09T15:09:34.225Z,100342.38
2022-09-09T15:12:01.722Z,100338.97
2022-09-09T15:14:28.144Z,100332.84
2022-09-09T15:16:54.546Z,100332.91
2022-09-09T15:19:21.016Z,100342.66
2022-09-09T15:21:48.460Z,100327.69
2022-09-09T15:24:14.897Z,100318.81
2022-09-09T15:26:41.302Z,100314.38
2022-09-09T15:29:08.963Z,100308.19
2022-09-09T15:31:35.532Z,100313.47
2022-09-09T15:34:06.605Z,100307.28
2022-09-09T15:36:41.116Z,100305.59
2022-09-09T15:39:10.600Z,100303.81
2022-09-09T15:41:36.995Z,100309.94
2022-09-09T15:44:03.743Z,100304.59
2022-09-09T15:46:33.137Z,100311.50
2022-09-09T15:49:10.161Z,100311.44
2022-09-09T15:51:43.251Z,100310.56
2022-09-09T15:54:13.101Z,100313.19
2022-09-09T15:56:39.633Z,100310.38
2022-09-09T15:59:06.090Z,100312.97
2022-09-09T16:01:33.324Z,100310.16
2022-09-09T16:04:00.971Z,100315.25
2022-09-09T16:06:29.241Z,100309.84
2022-09-09T16:08:57.367Z,100309.72
2022-09-09T16:11:26.549Z,100320.22
2022-09-09T16:13:54.353Z,100321.13
2022-09-09T16:16:23.374Z,100323.13
2022-09-09T16:18:52.845Z,100325.84
2022-09-09T16:21:27.165Z,100319.69
2022-09-09T16:23:56.999Z,100318.94
2022-09-09T16:26:24.104Z,100321.72
2022-09-09T16:28:50.655Z,100322.75
2022-09-09T16:31:19.824Z,100329.06
2022-09-09T16:33:47.187Z,100315.28
2022-09-09T16:36:15.330Z,100320.56
2022-09-09T16:38:42.180Z,100320.56
2022-09-09T16:41:10.093Z,100310.88
2022-09-09T16:43:37.537Z,100316.41
2022-09-09T16:46:05.589Z,100318.38
2022-09-09T16:48:34.104Z,100316.66
2022-09-09T16:51:09.106Z,100320.28
2022-09-09T16:53:35.628Z,100312.47
2022-09-09T16:56:09.306Z,100315.22
2022-09-09T16:58:35.907Z,100320.53
2022-09-09T17:01:04.161Z,100321.50
2022-09-09T17:03:32.191Z,100325.00
2022-09-09T17:06:02.761Z,100323.31
2022-09-09T17:08:32.491Z,100329.56
2022-09-09T17:10:59.973Z,100328.81
2022-09-09T17:13:26.531Z,100332.41
2022-09-09T17:15:53.291Z,100343.09
2022-09-09T17:18:20.279Z,100339.59
2022-09-09T17:20:47.386Z,100348.47
2022-09-09T17:23:16.780Z,100344.13
2022-09-09T17:25:44.127Z,100334.56
2022-09-09T17:28:10.579Z,100340.00
2022-09-09T17:30:37.608Z,100342.72
2022-09-09T17:33:04.913Z,100344.50
2022-09-09T17:35:32.210Z,100353.41
2022-09-09T17:37:58.977Z,100362.31
2022-09-09T17:40:25.409Z,100383.56
2022-09-09T17:42:51.973Z,100381.03
2022-09-09T17:45:18.392Z,100373.28
2022-09-09T17:47:45.584Z,100370.78
2022-09-09T17:50:13.681Z,100363.81
2022-09-09T17:52:41.501Z,100363.03
2022-09-09T17:55:10.160Z,100372.78
2022-09-09T17:57:36.582Z,100367.59
2022-09-09T18:00:06.482Z,100380.91
2022-09-09T18:02:32.934Z,100381.81
2022-09-09T18:04:59.910Z,100390.72
2022-09-09T18:07:26.303Z,100378.47
2022-09-09T18:09:52.724Z,100391.69
2022-09-09T18:12:19.123Z,100384.75
2022-09-09T18:14:45.552Z,100384.75
2022-09-09T18:17:12.626Z,100380.47
2022-09-09T18:19:39.044Z,100378.78
2022-09-09T18:22:06.787Z,100376.19
2022-09-09T18:24:33.770Z,100384.19
2022-09-09T18:27:00.831Z,100387.75
2022-09-09T18:29:27.241Z,100385.19
2022-09-09T18:31:54.880Z,100388.75
2022-09-09T18:34:22.667Z,100395.84
2022-09-09T18:36:56.111Z,100395.06
2022-09-09T18:39:25.036Z,100402.13
2022-09-09T18:41:53.996Z,100389.00
2022-09-09T18:44:23.377Z,100388.13
2022-09-09T18:46:50.225Z,100394.34
2022-09-09T18:49:16.992Z,100406.69
2022-09-09T18:51:45.243Z,100393.53
2022-09-09T18:54:16.374Z,100403.22
2022-09-09T18:56:43.689Z,100405.91
2022-09-09T18:59:13.097Z,100405.06
2022-09-09T19:01:39.960Z,100406.00
2022-09-09T19:04:07.478Z,100413.06
2022-09-09T19:06:36.926Z,100411.31
2022-09-09T19:09:04.221Z,100421.06
2022-09-09T19:11:32.161Z,100414.03
2022-09-09T19:14:01.373Z,100415.84
2022-09-09T19:16:29.775Z,100412.38
2022-09-09T19:19:02.231Z,100414.13
2022-09-09T19:21:35.628Z,100413.28
2022-09-09T19:24:06.622Z,100415.94
2022-09-09T19:26:40.729Z,100424.69
2022-09-09T19:29:10.094Z,100414.19
2022-09-09T19:31:37.075Z,100424.75
2022-09-09T19:34:03.715Z,100426.50
2022-09-09T19:36:31.504Z,100433.53
2022-09-09T19:38:58.075Z,100424.78
2022-09-09T19:41:26.508Z,100422.19
2022-09-09T19:43:57.297Z,100430.09
2022-09-09T19:46:23.709Z,100437.97
2022-09-09T19:48:50.582Z,100440.63
2022-09-09T19:51:19.734Z,100444.16
2022-09-09T19:53:48.733Z,100442.38
2022-09-09T19:56:16.519Z,100452.94
2022-09-09T19:58:44.642Z,100447.69
2022-09-09T20:01:13.989Z,100457.34
2022-09-09T20:03:42.009Z,100451.22
2022-09-09T20:06:12.073Z,100458.22
2022-09-09T20:08:39.368Z,100448.59
2022-09-09T20:11:07.126Z,100452.97
2022-09-09T20:13:36.271Z,100456.50
2022-09-09T20:16:14.163Z,100457.38
2022-09-09T20:18:43.240Z,100458.28
2022-09-09T20:21:37.834Z,100465.28
2022-09-09T20:24:07.366Z,100457.41
2022-09-09T20:26:36.269Z,100455.66
2022-09-09T20:29:05.445Z,100468.81
2022-09-09T20:31:36.240Z,100464.41
2022-09-09T20:34:04.114Z,100467.91
2022-09-09T20:36:33.646Z,100453.88
2022-09-09T20:39:03.507Z,100463.53
2022-09-09T20:41:33.002Z,100457.41
2022-09-09T20:44:04.402Z,100462.66
2022-09-09T20:46:33.591Z,100458.28
2022-09-09T20:49:03.125Z,100458.28
2022-09-09T20:51:33.057Z,100463.53
2022-09-09T20:54:08.602Z,100457.41
2022-09-09T20:56:40.050Z,100464.41
2022-09-09T20:59:13.088Z,100467.03
2022-09-09T21:01:39.994Z,100459.16
2022-09-09T21:04:07.083Z,100463.53
2022-09-09T21:06:33.674Z,100468.81
2022-09-09T21:09:00.137Z,100474.03
2022-09-09T21:11:26.630Z,100469.66
2022-09-09T21:13:53.066Z,100464.41
2022-09-09T21:16:19.547Z,100467.91
2022-09-09T21:18:46.078Z,100467.91
2022-09-09T21:21:12.974Z,100462.66
2022-09-09T21:23:39.418Z,100458.25
2022-09-09T21:26:07.524Z,100455.63
2022-09-09T21:28:35.993Z,100454.78
2022-09-09T21:31:03.550Z,100458.28
2022-09-09T21:33:30.346Z,100461.78
2022-09-09T21:36:03.033Z,100456.53
2022-09-09T21:38:29.471Z,100454.78
2022-09-09T21:40:55.867Z,100456.50
2022-09-09T21:43:23.528Z,100466.13
2022-09-09T21:45:50.795Z,100466.13
2022-09-09T21:48:18.645Z,100459.13
2022-09-09T21:50:47.679Z,100463.50
2022-09-09T21:53:15.806Z,100460.00
2022-09-09T21:55:42.966Z,100454.75
2022-09-09T21:58:10.051Z,100462.63
2022-09-09T22:00:36.580Z,100455.63
2022-09-09T22:03:03.579Z,100467.00
2022-09-09T22:05:31.426Z,100464.38
2022-09-09T22:07:58.354Z,100461.75
2022-09-09T22:10:27.033Z,100460.84
2022-09-09T22:12:54.058Z,100463.47
2022-09-09T22:15:20.706Z,100456.47
2022-09-09T22:17:47.133Z,100459.09
2022-09-09T22:20:13.550Z,100455.59
2022-09-09T22:22:39.939Z,100452.09
2022-09-09T22:25:07.375Z,100452.09
2022-09-09T22:27:33.779Z,100451.22
2022-09-09T22:30:00.183Z,100453.84
2022-09-09T22:32:27.035Z,100445.06
2022-09-09T22:34:53.435Z,100452.91
2022-09-09T22:37:19.849Z,100456.41
2022-09-09T22:39:46.306Z,100459.91
2022-09-09T22:42:13.665Z,100469.53
2022-09-09T22:44:40.077Z,100469.53
2022-09-09T22:47:06.510Z,100475.66
2022-09-09T22:49:32.921Z,100478.22
2022-09-09T22:51:59.338Z,100478.22
2022-09-09T22:54:25.723Z,100483.47
2022-09-09T22:56:52.230Z,100483.44
2022-09-09T22:59:19.338Z,100481.69
2022-09-09T23:01:46.748Z,100486.03
2022-09-09T23:04:13.568Z,100479.03
2022-09-09T23:06:43.295Z,100483.38
2022-09-09T23:09:11.322Z,100484.25
2022-09-09T23:11:37.713Z,100484.22
2022-09-09T23:14:06.507Z,100485.97
2022-09-09T23:16:38.172Z,100478.09
2022-09-09T23:19:04.806Z,100485.06
2022-09-09T23:21:31.920Z,100477.19
2022-09-09T23:23:59.651Z,100479.78
2022-09-09T23:26:26.729Z,100478.91
2022-09-09T23:28:56.524Z,100478.84
2022-09-09T23:31:24.849Z,100476.22
2022-09-09T23:33:54.252Z,100478.84
2022-09-09T23:36:22.213Z,100484.09
2022-09-09T23:38:48.651Z,100491.06
2022-09-09T23:41:19.684Z,100489.25
2022-09-09T23:43:46.225Z,100489.25
2022-09-09T23:46:15.112Z,100482.25
2022-09-09T23:48:42.576Z,100485.75
2022-09-09T23:51:12.404Z,100480.47
2022-09-09T23:53:40.197Z,100473.41
2022-09-09T23:56:07.027Z,100476.03
2022-09-09T23:58:33.738Z,100473.41
